Edwards Creek Valley, Nevada Weather observations

Data are for observation ending at time listed.
 Day   Time    Ave.   Ave.  Ave.  Vector   Max.   Stn.    Total    Solar   Ave.  
  of    of     Air    Rel.  Wind   Wind    Wind   Baro.  Precip.   Rad.    Soil  
Year   Day     Temp.  Hum.  Speed  Dir.    Gust   Pres.                    Temp. 
2014   (PST)    F      %     mph   deg.    mph     mb.     in.     W/m2     F   
------------------------------------------------------------------------------
 106   18:30   57.5    21    2.8     1      4.5    842     0.00       7     67.0
 106   18:40   56.8    22    0.9    62      3.8    843     0.00       3     66.5
 106   18:50   55.7    22    2.7    94      4.2    843     0.00       1     66.0
 106   19:00   55.2    23    1.4    77      2.3    843     0.00       0     65.5
 106   19:10   55.2    23    2.5    95      5.6    843     0.00       0     65.0
 106   19:20   50.9    24    4.8   137      6.7    843     0.00       0     64.5
 106   19:30   48.2    26    3.4   148      4.5    843     0.00       0     64.1
 106   19:40   47.6    27    4.5   147      5.9    843     0.00       0     63.6
 106   19:50   47.5    29    4.3   142      5.4    843     0.00       0     63.1
 106   20:00   47.7    30    4.5   140      5.4    843     0.00       0     62.7
 106   20:10   47.8    30    5.4   138      6.7    842     0.00       0     62.3
 106   20:20   48.2    31    5.6   140      7.3    844     0.00       0     61.9
 106   20:30   48.4    31    5.8   144      7.9    844     0.00       0     61.5
 106   20:40   48.1    31    5.1   146      7.2    844     0.00       0     61.2
 106   20:50   46.6    32    3.1   237      5.2    843     0.00       0     60.8
 106   21:00   45.7    33    3.4   220      5.1    843     0.00       0     60.5
 106   21:10   46.4    34    4.5   172      6.4    843     0.00       0     60.1
 106   21:20   47.5    32    5.3   180      7.1    843     0.00       0     59.8
 106   21:30   47.3    32    4.0   160      8.2    843     0.00       0     59.5
 106   21:40   46.9    34    5.3   154      7.6    843     0.00       0     59.2
 106   21:50   47.7    33    6.5   170      9.4    843     0.00       0     58.9
 106   22:00   46.5    34    5.1   182      7.5    843     0.00       0     58.6
 106   22:10   44.6    36    4.0   182      5.6    843     0.00       0     58.4
 106   22:20   43.8    37    3.8   164      5.9    843     0.00       0     58.1
 106   22:30   43.1    38    3.6   163      5.4    843     0.00       0     57.8
 106   22:40   42.4    38    4.1   166      5.9    843     0.00       0     57.5
 106   22:50   42.4    40    5.0   145      6.6    844     0.00       0     57.3
 106   23:00   43.5    39    4.4   155      6.1    844     0.00       0     56.9
 106   23:10   43.7    38    2.1   121      3.4    844     0.00       0     56.7
 106   23:20   42.4    38    2.0   109      3.8    844     0.00       0     56.5
 106   23:30   40.5    38    2.6   286      4.5    844     0.00       0     56.2
 106   23:40   36.9    43    2.2   230      4.2    844     0.00       0     55.9
 106   23:50   36.9    45    1.7   173      3.0    843     0.00       0     55.7
 107    0:00   36.4    44    3.1   164      4.5    844     0.00       0     55.4
 107    0:10   36.8    43    2.9   166      5.0    843     0.00       0     55.1
 107    0:20   37.2    44    4.8   176      6.1    843     0.00       0     54.8
 107    0:30   37.5    44    3.8   171      6.9    843     0.00       0     54.6
 107    0:40   36.9    45    3.2   148      4.9    843     0.00       0     54.3
 107    0:50   36.0    46    1.6   120      4.5    843     0.00       0     54.1
 107    1:00   35.6    46    2.4   207      3.7    843     0.00       0     53.8
 107    1:10   34.3    48    1.9   165      3.7    843     0.00       0     53.6
 107    1:20   35.6    49    2.4   179      5.0    843     0.00       0     53.3
 107    1:30   35.8    48    2.2   201      3.4    843     0.00       0     53.1
 107    1:40   34.0    48    3.0   195      4.2    843     0.00       0     52.9
 107    1:50   34.3    51    3.0   188      5.7    842     0.00       0     52.6
 107    2:00   33.9    50    1.0   134      3.8    842     0.00       0     52.4
 107    2:10   33.6    50    2.1    63      3.9    843     0.00       0     52.2
 107    2:20   33.4    49    1.3   299      2.9    843     0.00       0     52.0
 107    2:30   32.0    49    2.9   281      4.0    843     0.00       0     51.7
 107    2:40   31.3    46    2.3   251      3.4    843     0.00       0     51.5
 107    2:50   29.9    49    2.3   183      3.6    843     0.00       0     51.3
 107    3:00   30.5    52    2.5   142      4.4    842     0.00       0     51.0
 107    3:10   31.1    54    4.2   137      5.0    843     0.00       0     50.8
 107    3:20   31.7    52    2.7   128      4.2    842     0.00       0     50.6
 107    3:30   32.2    53    2.1   190      3.7    842     0.00       0     50.4
 107    3:40   32.3    53    3.1   196      4.7    842     0.00       0     50.2
 107    3:50   33.4    51    3.1   207      4.6    842     0.00       0     50.0
 107    4:00   32.4    52    3.7   197      4.8    842     0.00       0     49.9
 107    4:10   31.7    53    2.8   175      4.1    842     0.00       0     49.7
 107    4:20   30.7    55    2.8   169      4.2    842     0.00       0     49.5
 107    4:30   30.3    55    3.7   182      4.4    842     0.00       0     49.3
 107    4:40   30.2    56    2.5   185      3.8    842     0.00       0     49.2
 107    4:50   29.4    55    1.1   175      2.9    842     0.00       0     49.0
 107    5:00   28.8    58    3.2   194      4.2    842     0.00       0     48.8
 107    5:10   28.7    58    1.6   141      2.6    842     0.00       2     48.6
 107    5:20   29.8    59    1.0   116      3.1    842     0.00       5     48.5
 107    5:30   30.7    56    2.1   189      3.8    841     0.00      18     48.3
 107    5:40   30.0    55    2.1   152      3.2    842     0.00      41     48.1
 107    5:50   31.4    53    2.2   146      3.3    842     0.00      64     47.9
 107    6:00   34.3    49    0.4   202      1.2    842     0.00     100     47.8
 107    6:10   35.7    46    0.6   242      1.4    842     0.00     140     47.8
 107    6:20   37.8    46    0.8   246      1.2    842     0.00     169     47.9
 107    6:30   40.5    43    1.3   214      2.4    842     0.00     207     48.0
 107    6:40   43.1    40    0.3   269      1.2    842     0.00     244     48.3
 107    6:50   44.2    38    1.8    17      4.0    842     0.00     280     48.7
 107    7:00   45.0    37    2.6    23      3.7    843     0.00     315     49.1
 107    7:10   45.9    36    3.1    21      4.9    843     0.00     351     49.7
 107    7:20   46.6    35    3.3    26      6.2    843     0.00     388     50.3
 107    7:30   47.3    34    3.1     1      4.9    843     0.00     423     50.8
 107    7:40   48.8    32    2.5    16      4.2    843     0.00     453     51.5
 107    7:50   50.3    31    2.0    15      4.9    843     0.00     478     52.2
 107    8:00   52.0    30    1.5    43      3.7    843     0.00     510     52.9
 107    8:10   53.5    28    1.6    69      3.7    843     0.00     541     53.8
 107    8:20   54.9    27    1.6   100      3.9    843     0.00     580     54.7
 107    8:30   56.0    26    1.3    40      3.8    843     0.00     611     55.7
 107    8:40   56.6    26    2.0   337      4.1    843     0.00     637     56.8
 107    8:50   57.5    25    2.0    75      5.4    843     0.00     666     57.8
 107    9:00   59.4    24    2.5    84      5.8    843     0.00     694     58.9
 107    9:10   59.0    24    4.1    13      7.4    842     0.00     723     60.0
 107    9:20   59.7    23    3.3    24      6.7    843     0.00     747     61.0
 107    9:30   61.1    22    2.3    38      5.0    843     0.00     770     62.1
 107    9:40   62.8    20    2.0   327      4.6    842     0.00     791     63.1
 107    9:50   62.7    21    2.4   269      6.0    842     0.00     810     64.2
 107   10:00   64.1    20    3.5   239      7.4    842     0.00     827     65.2
 107   10:10   64.6    20    2.6   287      5.8    842     0.00     843     66.2
 107   10:20   65.3    20    2.8   336      5.6    842     0.00     860     67.2
 107   10:30   66.5    19    2.7    96      7.7    843     0.00     876     68.2
 107   10:40   67.1    19    3.3   142      8.6    844     0.00     889     69.2
 107   10:50   69.0    18    3.2   171      7.9    843     0.00     901     70.2
 107   11:00   69.5    18    4.7    71      8.8    843     0.00     910     71.1
 107   11:10   70.1    17    6.2   112     17.2    842     0.00     919     72.0
 107   11:20   71.2    16    4.2   175      9.9    842     0.00     927     72.8
 107   11:30   72.8    15    7.4   213     16.5    842     0.00     932     73.1
 107   11:40   73.5    14   12.1   215     20.2    842     0.00     936     73.2
 107   11:50   73.2    14   13.8   201     21.8    842     0.00     938     73.6
 107   12:00   73.5    14   11.2   210     19.8    842     0.00     939     74.0
 107   12:10   74.5    13   12.2   216     20.6    842     0.00     942     74.5
 107   12:20   74.7    13   12.3   211     22.7    842     0.00     941     74.9
 107   12:30   75.1    13   14.0   204     24.3    841     0.00     927     75.4
 107   12:40   75.4    13   14.9   202     24.4    841     0.00     834     75.7
 107   12:50   74.6    13   13.4   195     26.0    842     0.00     812     76.0
 107   13:00   75.9    12   14.8   216     25.6    842     0.00     875     76.2
 107   13:10   75.3    13   12.3   215     20.8    842     0.00     828     76.4
 107   13:20   76.6    12   15.2   202     25.7    842     0.00     895     76.6
 107   13:30   76.6    12   13.6   206     23.2    840     0.00     886     76.8
 107   13:40   76.5    12   13.5   205     21.0    840     0.00     863     77.0
 107   13:50   76.8    12   13.4   214     22.5    840     0.00     815     77.3
 107   14:00   76.7    12   13.8   199     24.1    839     0.00     781     77.5
 107   14:10   77.1    12   12.7   203     22.6    839     0.00     808     77.5
 107   14:20   77.3    11   15.0   213     24.3    839     0.00     780     77.6
 107   14:30   77.4    11   12.9   226     22.1    840     0.00     781     77.6
 107   14:40   77.6    11   12.4   208     22.9    839     0.00     718     77.7
 107   14:50   77.6    11   13.1   213     21.3    839     0.00     582     77.7
 107   15:00   76.2    12   11.2   196     18.4    839     0.00     391     77.6
 107   15:10   76.8    12   11.3   228     18.6    839     0.00     625     77.2
 107   15:20   78.5    11   10.9   206     18.8    839     0.00     606     76.7
 107   15:30   77.3    11   10.0   208     27.8    839     0.00     488     76.3
 107   15:40   76.6    11    9.5   230     16.0    839     0.00     450     76.0
 107   15:50   76.8    12    9.2   241     17.1    839     0.00     345     75.8
 107   16:00   75.2    12   10.7   287     17.4    839     0.00     253     75.6
 107   16:10   74.8    13   12.9   290     18.7    838     0.00     198     75.4
 107   16:20   73.4    14   13.4   298     19.1    838     0.00     179     75.1
 107   16:30   73.4    14   13.6   291     23.4    838     0.00     214     74.8
 107   16:40   72.7    15   14.8   281     20.5    838     0.00     172     74.5
 107   16:50   72.0    15   14.2   280     20.3    838     0.00     168     74.2
 107   17:00   71.8    15   13.4   295     20.0    838     0.00     146     73.9
 107   17:10   71.2    16   12.3   293     17.5    838     0.00      95     73.5
 107   17:20   70.6    16   12.1   294     17.0    838     0.00      79     73.1
 107   17:30   70.2    16    8.5   286     14.3    838     0.00      66     72.8
 107   17:40   70.0    16    7.5   269     12.7    838     0.00      51     72.4
 107   17:50   69.7    17    4.2   224      9.1    838     0.00      36     72.0
 107   18:00   69.2    18    6.3   220     10.7    839     0.00      22     71.6
 107   18:10   68.6    19    6.7   199     10.0    839     0.00      13     71.2
 107   18:20   68.7    19    7.5   178     19.6    838     0.00       7     70.8

Return to Carson Sink graphs page.


Western Regional Climate Center,wrcc@dri.edu